Salzburg Flughafen, Austria

9:13 PM CEST on July 02, 2015 (GMT +0200)
Salzburg Maxglan | | Change Station
CLOSE
Current Station
Personal Weather Station
Location: Salzburg, SALZBURG
Elevation: 1398 ft
Nearby Weather Stations

Elev 1398 ft 47.80 °N, 13.01 °E | Updated 1 minute ago

Partly Cloudy
Partly Cloudy
79.9 °F
Feels Like 81 °F
N
0.7
Wind Variable Wind from North
Gusts 2.2 mph

Today
High -- | Low -- °F
--% Chance of Precip.
Yesterday
High -- | Low -- °F
Precip. -- in
5:13 AM 9:09 PM
Full, 99% visible
Pressure 30.21 in
Visibility 6.2 miles
Clouds Few 8000 ft
Heat Index 81 °F
Dew Point 60 °F
Humidity 50%
Rainfall 0.00 in
Snow Depth Not available.
UV 0 out of 12
Pollen Not available.
Air Quality Not available.
Flu Activity Not available.
METAR LOWS 021850Z 36005KT 9999 FEW080 27/15 Q1023 NOSIG

More Conditions Fewer Conditions

Pressure 30.21 in
Visibility 6.2 miles
Clouds Few 8000 ft
Heat Index 81 °F
Dew Point 60 °F
Humidity 50%
Rainfall 0.00 in
Snow Depth Not available.
UV 0 out of 12
Pollen Not available.
Air Quality Not available.
Flu Activity Not available.
METAR LOWS 021850Z 36005KT 9999 FEW080 27/15 Q1023 NOSIG

More Conditions Fewer Conditions

10-Day Weather Forecast

×

Almanac

Astronomy

Jul. 02, 2015 Rise Set
Actual Time
Civil Twilight
Nautical Twilight
Astronomical Twilight
Moon
Length of Visible Light
Length of Day
Tomorrow will be .
, % of the Moon is Illuminated

Today's Extremes

Country Highs Country Lows

Community

WunderPhotos

Upload Photos

1,834,517 photos uploaded!

WunderBlogs® & News

Nearby

Air Quality

  Air Quality AQ Index Pollutant
Not available.

Snow Depth

Station Depth Elevation

Earthquake Activity

City Distance Mag. Time & Date
Minimum magnitude displayed is 2.5.

Coastal Water Temperatures

Place Temperature

Stations

Nearby Weather Stations

Station Location Temp. Windchill Dew Point Humidity Wind Precip. Elev Updated Type